createdAt,value
2019-04-06T00:02:37.763Z,37.30
2019-04-06T00:05:08.316Z,37.20
2019-04-06T00:07:40.011Z,35.83
2019-04-06T00:10:08.872Z,34.50
2019-04-06T00:12:37.658Z,30.48
2019-04-06T00:15:07.753Z,30.50
2019-04-06T00:17:36.568Z,30.12
2019-04-06T00:20:06.730Z,28.20
2019-04-06T00:22:35.454Z,30.88
2019-04-06T00:25:05.348Z,32.80
2019-04-06T00:27:34.616Z,34.78
2019-04-06T00:30:03.455Z,33.95
2019-04-06T00:32:33.857Z,28.55
2019-04-06T00:35:05.404Z,31.40
2019-04-06T00:37:34.152Z,35.83
2019-04-06T00:40:02.869Z,36.33
2019-04-06T00:42:31.807Z,33.08
2019-04-06T00:45:00.514Z,37.05
2019-04-06T00:47:29.319Z,32.00
2019-04-06T00:49:58.020Z,36.05
2019-04-06T00:52:26.756Z,36.73
2019-04-06T00:54:55.982Z,37.55
2019-04-06T00:57:24.835Z,36.42
2019-04-06T00:59:53.590Z,34.00
2019-04-06T01:02:22.566Z,32.88
2019-04-06T01:04:52.988Z,25.62
2019-04-06T01:07:23.161Z,27.70
2019-04-06T01:09:52.804Z,25.45
2019-04-06T01:12:23.145Z,27.67
2019-04-06T01:14:51.972Z,27.15
2019-04-06T01:17:23.812Z,26.85
2019-04-06T01:19:52.724Z,24.30
2019-04-06T01:22:23.104Z,30.92
2019-04-06T01:24:51.935Z,32.65
2019-04-06T01:27:22.329Z,32.53
2019-04-06T01:29:51.147Z,37.23
2019-04-06T01:32:19.934Z,38.55
2019-04-06T01:34:48.669Z,42.95
2019-04-06T01:37:17.447Z,39.85
2019-04-06T01:39:46.187Z,35.23
2019-04-06T01:42:17.823Z,33.78
2019-04-06T01:44:46.553Z,34.73
2019-04-06T01:47:15.266Z,37.28
2019-04-06T01:49:45.464Z,36.75
2019-04-06T01:52:14.198Z,35.13
2019-04-06T01:54:43.016Z,31.77
2019-04-06T01:57:11.794Z,35.60
2019-04-06T01:59:40.574Z,36.58
2019-04-06T02:02:14.102Z,37.28
2019-04-06T02:04:42.897Z,40.12
2019-04-06T02:07:11.631Z,37.35
2019-04-06T02:09:40.404Z,37.98
2019-04-06T02:12:09.562Z,28.00
2019-04-06T02:14:38.600Z,26.27
2019-04-06T02:17:07.350Z,31.37
2019-04-06T02:19:39.646Z,26.60
2019-04-06T02:22:08.322Z,30.48
2019-04-06T02:24:38.683Z,28.38
2019-04-06T02:27:09.053Z,27.15
2019-04-06T02:29:37.957Z,26.60
2019-04-06T02:32:25.069Z,25.68
2019-04-06T02:35:11.641Z,25.52
2019-04-06T02:37:47.780Z,23.20
2019-04-06T02:40:28.364Z,26.70
2019-04-06T02:42:58.740Z,27.60
2019-04-06T02:45:27.505Z,25.32
2019-04-06T02:47:56.332Z,29.60
2019-04-06T02:50:25.122Z,26.33
2019-04-06T02:52:53.982Z,25.92
2019-04-06T02:55:22.759Z,28.42
2019-04-06T02:57:51.450Z,24.20
2019-04-06T03:00:24.131Z,26.05
2019-04-06T03:02:54.660Z,26.60
2019-04-06T03:05:23.436Z,26.45
2019-04-06T03:07:52.202Z,27.48
2019-04-06T03:10:21.283Z,27.82
2019-04-06T03:12:50.045Z,26.65
2019-04-06T03:15:18.849Z,25.37
2019-04-06T03:17:47.607Z,27.00
2019-04-06T03:20:16.353Z,28.42
2019-04-06T03:22:45.062Z,27.32
2019-04-06T03:25:13.978Z,27.40
2019-04-06T03:27:42.759Z,26.87
2019-04-06T03:30:12.009Z,29.52
2019-04-06T03:32:40.768Z,29.30
2019-04-06T03:35:10.060Z,28.87
2019-04-06T03:37:38.783Z,32.53
2019-04-06T03:40:07.810Z,30.80
2019-04-06T03:42:36.734Z,30.12
2019-04-06T03:45:07.940Z,33.38
2019-04-06T03:47:36.682Z,34.25
2019-04-06T03:50:09.796Z,28.17
2019-04-06T03:52:38.570Z,27.58
2019-04-06T03:55:09.773Z,33.10
2019-04-06T03:57:38.673Z,34.05
2019-04-06T04:00:07.901Z,31.50
2019-04-06T04:02:39.314Z,34.43
2019-04-06T04:05:08.617Z,35.43
2019-04-06T04:07:37.255Z,39.00
2019-04-06T04:10:07.639Z,43.55
2019-04-06T04:12:36.309Z,40.20
2019-04-06T04:15:06.479Z,36.42
2019-04-06T04:17:35.257Z,37.73
2019-04-06T04:20:07.763Z,39.60
2019-04-06T04:22:39.018Z,35.75
2019-04-06T04:25:07.729Z,42.13
2019-04-06T04:27:38.059Z,39.33
2019-04-06T04:30:08.433Z,43.05
2019-04-06T04:32:37.094Z,40.30
2019-04-06T04:35:08.590Z,42.60
2019-04-06T04:37:37.481Z,43.48
2019-04-06T04:40:08.486Z,40.88
2019-04-06T04:42:37.193Z,41.42
2019-04-06T04:45:06.542Z,42.43
2019-04-06T04:47:35.216Z,40.73
2019-04-06T04:50:03.871Z,40.05
2019-04-06T04:52:35.777Z,40.95
2019-04-06T04:55:06.199Z,42.80
2019-04-06T04:57:40.900Z,45.55
2019-04-06T05:00:06.401Z,47.33
2019-04-06T05:02:35.116Z,38.40
2019-04-06T05:05:04.573Z,42.30
2019-04-06T05:07:33.333Z,43.42
2019-04-06T05:10:02.022Z,39.92
2019-04-06T05:12:30.773Z,43.90
2019-04-06T05:15:02.409Z,38.90
2019-04-06T05:17:31.465Z,37.13
2019-04-06T05:20:00.481Z,38.80
2019-04-06T05:22:29.201Z,34.55
2019-04-06T05:24:58.036Z,35.70
2019-04-06T05:27:27.141Z,38.73
2019-04-06T05:29:59.183Z,40.12
2019-04-06T05:32:29.819Z,41.13
2019-04-06T05:34:58.682Z,43.85
2019-04-06T05:37:28.850Z,48.42
2019-04-06T05:39:57.521Z,50.20
2019-04-06T05:42:26.249Z,54.00
2019-04-06T05:44:55.011Z,64.53
2019-04-06T05:47:25.359Z,62.88
2019-04-06T05:49:54.679Z,82.95
2019-04-06T05:52:23.904Z,75.37
2019-04-06T05:54:52.847Z,92.67
2019-04-06T05:57:24.678Z,90.05
2019-04-06T05:59:53.519Z,94.95
2019-04-06T06:02:22.504Z,101.78
2019-04-06T06:04:51.234Z,100.38
2019-04-06T06:07:22.490Z,104.07
2019-04-06T06:09:51.915Z,104.80
2019-04-06T06:12:20.637Z,103.72
2019-04-06T06:14:50.946Z,98.40
2019-04-06T06:17:19.962Z,99.97
2019-04-06T06:19:50.532Z,98.92
2019-04-06T06:22:19.302Z,95.30
2019-04-06T06:24:48.398Z,92.17
2019-04-06T06:27:17.221Z,94.72
2019-04-06T06:29:47.377Z,90.57
2019-04-06T06:32:16.164Z,91.45
2019-04-06T06:34:48.383Z,92.55
2019-04-06T06:37:17.217Z,90.12
2019-04-06T06:39:45.910Z,91.22
2019-04-06T06:42:14.684Z,87.53
2019-04-06T06:44:43.369Z,90.85
2019-04-06T06:47:13.117Z,83.03
2019-04-06T06:49:41.791Z,84.07
2019-04-06T06:52:10.514Z,85.92
2019-04-06T06:54:39.260Z,82.82
2019-04-06T06:57:09.987Z,79.30
2019-04-06T06:59:38.880Z,75.95
2019-04-06T07:02:07.673Z,75.92
2019-04-06T07:04:36.400Z,75.40
2019-04-06T07:07:05.180Z,76.30
2019-04-06T07:09:36.984Z,73.45
2019-04-06T07:12:05.731Z,75.15
2019-04-06T07:14:37.172Z,74.97
2019-04-06T07:17:05.942Z,71.85
2019-04-06T07:19:34.648Z,72.78
2019-04-06T07:22:06.162Z,75.17
2019-04-06T07:24:34.877Z,71.07
2019-04-06T07:27:03.552Z,70.25
2019-04-06T07:29:33.912Z,73.78
2019-04-06T07:32:03.296Z,72.58
2019-04-06T07:34:32.066Z,70.95
2019-04-06T07:37:01.214Z,68.15
2019-04-06T07:39:29.892Z,72.35
2019-04-06T07:41:58.596Z,67.17
2019-04-06T07:44:27.258Z,65.47
2019-04-06T07:46:56.160Z,69.17
2019-04-06T07:49:24.813Z,66.07
2019-04-06T07:51:53.511Z,68.22
2019-04-06T07:54:22.184Z,68.20
2019-04-06T07:56:50.893Z,59.93
2019-04-06T07:59:19.576Z,65.32
2019-04-06T08:01:48.976Z,66.33
2019-04-06T08:04:17.754Z,62.93
2019-04-06T08:06:46.550Z,63.20
2019-04-06T08:09:15.214Z,66.85
2019-04-06T08:11:43.956Z,61.63
2019-04-06T08:14:14.188Z,61.60
2019-04-06T08:16:42.916Z,55.63
2019-04-06T08:19:11.647Z,59.60
2019-04-06T08:21:40.570Z,60.75
2019-04-06T08:24:09.344Z,58.40
2019-04-06T08:26:38.096Z,59.80
2019-04-06T08:29:06.810Z,58.58
2019-04-06T08:31:38.491Z,61.60
2019-04-06T08:34:07.216Z,59.05
2019-04-06T08:36:38.574Z,59.27
2019-04-06T08:39:09.600Z,61.10
2019-04-06T08:41:38.290Z,58.48
2019-04-06T08:44:09.921Z,60.80
2019-04-06T08:46:38.591Z,60.70
2019-04-06T08:49:07.400Z,59.42
2019-04-06T08:51:36.142Z,59.60
2019-04-06T08:54:04.924Z,59.23
2019-04-06T08:56:35.392Z,57.80
2019-04-06T08:59:11.251Z,58.25
2019-04-06T09:01:34.531Z,58.15
2019-04-06T09:04:03.337Z,56.90
2019-04-06T09:06:31.998Z,55.95
2019-04-06T09:09:05.155Z,57.55
2019-04-06T09:11:33.927Z,53.78
2019-04-06T09:14:02.777Z,54.75
2019-04-06T09:16:31.657Z,53.85
2019-04-06T09:19:00.514Z,52.78
2019-04-06T09:21:29.500Z,51.85
2019-04-06T09:23:58.910Z,52.43
2019-04-06T09:26:28.061Z,51.50
2019-04-06T09:28:59.397Z,52.73
2019-04-06T09:31:27.362Z,49.38
2019-04-06T09:33:56.025Z,50.10
2019-04-06T09:36:24.801Z,45.63
2019-04-06T09:38:53.549Z,50.17
2019-04-06T09:41:22.313Z,47.53
2019-04-06T09:43:50.976Z,48.02
2019-04-06T09:46:29.621Z,46.37
2019-04-06T09:49:08.334Z,46.37
2019-04-06T09:51:56.838Z,44.70
2019-04-06T09:54:36.591Z,47.38
2019-04-06T09:57:06.916Z,42.80
2019-04-06T09:59:52.513Z,44.67
2019-04-06T10:02:25.809Z,48.45
2019-04-06T10:05:11.720Z,46.90
2019-04-06T10:07:54.359Z,44.55
2019-04-06T10:10:37.085Z,40.83
2019-04-06T10:13:25.592Z,38.67
2019-04-06T10:15:59.146Z,39.10
2019-04-06T10:18:45.796Z,39.40
2019-04-06T10:21:16.347Z,39.45
2019-04-06T10:23:46.780Z,37.23
2019-04-06T10:26:17.083Z,40.35
2019-04-06T10:28:50.170Z,43.40
2019-04-06T10:31:24.997Z,41.77
2019-04-06T10:34:04.329Z,45.08
2019-04-06T10:36:50.849Z,46.88
2019-04-06T10:39:21.200Z,46.40
2019-04-06T10:41:57.479Z,45.23
2019-04-06T10:44:30.692Z,43.80
2019-04-06T10:47:04.036Z,43.35
2019-04-06T10:49:50.590Z,41.58
2019-04-06T10:52:23.287Z,43.68
2019-04-06T10:55:11.841Z,43.78
2019-04-06T10:58:00.776Z,44.70
2019-04-06T11:00:46.659Z,44.77
2019-04-06T11:03:29.021Z,45.25
2019-04-06T11:05:59.367Z,44.70
2019-04-06T11:08:38.700Z,45.63
2019-04-06T11:11:24.114Z,43.95
2019-04-06T11:14:10.857Z,42.20
2019-04-06T11:16:50.440Z,41.37
2019-04-06T11:19:26.831Z,42.53
2019-04-06T11:22:06.980Z,46.20
2019-04-06T11:24:37.296Z,45.10
2019-04-06T11:27:07.660Z,43.80
2019-04-06T11:29:37.971Z,42.88
2019-04-06T11:32:17.532Z,47.43
2019-04-06T11:35:04.102Z,42.15
2019-04-06T11:37:51.053Z,45.85
2019-04-06T11:40:30.442Z,41.42
2019-04-06T11:43:00.826Z,40.58
2019-04-06T11:45:31.367Z,40.58
2019-04-06T11:48:01.685Z,41.60
2019-04-06T11:50:39.189Z,38.38
2019-04-06T11:53:10.059Z,37.80
2019-04-06T11:55:46.628Z,39.63
2019-04-06T11:58:23.546Z,35.73
2019-04-06T12:01:09.270Z,37.20
2019-04-06T12:03:54.976Z,39.85
2019-04-06T12:06:28.327Z,38.85
2019-04-06T12:09:02.870Z,40.10
2019-04-06T12:11:48.305Z,38.92
2019-04-06T12:14:21.924Z,38.63
2019-04-06T12:17:04.182Z,37.23
2019-04-06T12:19:52.526Z,34.27
2019-04-06T12:22:25.943Z,34.83
2019-04-06T12:25:13.344Z,31.82
2019-04-06T12:27:58.682Z,31.52
2019-04-06T12:30:45.126Z,32.88
2019-04-06T12:33:27.521Z,33.38
2019-04-06T12:36:13.088Z,32.40
2019-04-06T12:38:55.714Z,31.45
2019-04-06T12:41:42.673Z,27.45
2019-04-06T12:44:22.276Z,33.70
2019-04-06T12:46:58.800Z,32.03
2019-04-06T12:49:47.273Z,28.52
2019-04-06T12:52:18.228Z,23.55
2019-04-06T12:55:04.835Z,25.65
2019-04-06T12:57:37.931Z,30.95
2019-04-06T13:00:21.759Z,29.98
2019-04-06T13:02:52.089Z,28.77
2019-04-06T13:08:18.871Z,25.25
2019-04-06T13:10:52.147Z,23.30
2019-04-06T13:13:31.893Z,23.67
2019-04-06T13:16:11.272Z,25.68
2019-04-06T13:18:57.694Z,28.45
2019-04-06T13:21:31.017Z,27.77
2019-04-06T13:26:50.729Z,24.80
2019-04-06T13:29:23.751Z,23.55
2019-04-06T13:31:57.348Z,24.00
2019-04-06T13:34:36.858Z,22.70
2019-04-06T13:37:16.067Z,25.32
2019-04-06T13:39:52.174Z,25.37
2019-04-06T13:42:25.629Z,24.07
2019-04-06T13:47:48.071Z,24.55
2019-04-06T13:50:21.203Z,24.47
2019-04-06T13:52:51.574Z,23.40
2019-04-06T13:55:40.232Z,23.32
2019-04-06T13:58:13.101Z,20.17
2019-04-06T14:00:43.539Z,20.17
2019-04-06T14:03:18.444Z,19.35
2019-04-06T14:06:05.211Z,19.10
2019-04-06T14:08:50.830Z,20.12
2019-04-06T14:11:24.356Z,20.32
2019-04-06T14:14:02.250Z,17.90
2019-04-06T14:16:51.210Z,16.93
2019-04-06T14:19:37.552Z,17.70
2019-04-06T14:22:24.388Z,18.48
2019-04-06T14:25:12.926Z,16.97
2019-04-06T14:27:43.411Z,16.62
2019-04-06T14:30:13.878Z,18.25
2019-04-06T14:32:50.072Z,17.52
2019-04-06T14:35:20.896Z,17.75
2019-04-06T14:38:07.148Z,16.80
2019-04-06T14:40:46.536Z,16.82
2019-04-06T14:43:33.341Z,16.15
2019-04-06T14:46:07.921Z,15.75
2019-04-06T14:48:38.262Z,16.10
2019-04-06T14:51:12.018Z,15.85
2019-04-06T14:53:51.425Z,18.13
2019-04-06T14:56:24.652Z,17.35
2019-04-06T14:58:55.011Z,17.98
2019-04-06T15:01:40.191Z,17.80
2019-04-06T15:04:08.255Z,19.13
2019-04-06T15:06:45.128Z,17.85
2019-04-06T15:09:26.887Z,18.90
2019-04-06T15:12:00.218Z,17.45
2019-04-06T15:14:45.902Z,17.37
2019-04-06T15:17:22.223Z,19.00
2019-04-06T15:19:54.031Z,18.82
2019-04-06T15:22:39.614Z,18.35
2019-04-06T15:25:28.429Z,26.87
2019-04-06T15:28:19.829Z,39.08
2019-04-06T15:30:59.235Z,38.78
2019-04-06T15:33:32.633Z,38.33
2019-04-06T15:36:05.876Z,39.75
2019-04-06T15:38:36.636Z,37.13
2019-04-06T15:41:12.143Z,37.67
2019-04-06T15:43:54.688Z,38.67
2019-04-06T15:46:30.109Z,39.73
2019-04-06T15:49:06.314Z,36.65
2019-04-06T15:51:45.368Z,39.60
2019-04-06T15:57:09.805Z,35.15
2019-04-06T15:59:46.647Z,35.88
2019-04-06T16:02:23.131Z,33.23
2019-04-06T16:05:05.522Z,38.85
2019-04-06T16:07:52.631Z,38.23
2019-04-06T16:10:25.763Z,37.35
2019-04-06T16:12:59.371Z,35.80
2019-04-06T16:15:35.885Z,35.63
2019-04-06T16:18:12.249Z,37.73
2019-04-06T16:20:42.628Z,38.02
2019-04-06T16:23:13.294Z,38.67
2019-04-06T16:25:59.382Z,36.35
2019-04-06T16:28:45.478Z,36.80
2019-04-06T16:31:35.359Z,36.83
2019-04-06T16:34:17.748Z,37.75
2019-04-06T16:37:04.575Z,37.50
2019-04-06T16:39:43.860Z,36.25
2019-04-06T16:42:20.189Z,34.83
2019-04-06T16:44:52.140Z,36.08
2019-04-06T16:47:25.433Z,38.08
2019-04-06T16:50:03.835Z,38.95
2019-04-06T16:52:34.194Z,38.00
2019-04-06T16:55:04.504Z,38.83
2019-04-06T16:57:51.400Z,34.70
2019-04-06T17:00:21.744Z,38.33
2019-04-06T17:03:06.420Z,36.53
2019-04-06T17:05:36.185Z,38.78
2019-04-06T17:08:13.542Z,37.58
2019-04-06T17:10:47.761Z,39.50
2019-04-06T17:13:18.150Z,38.80
2019-04-06T17:15:53.829Z,37.98
2019-04-06T17:18:38.978Z,34.15
2019-04-06T17:23:52.752Z,34.45
2019-04-06T17:26:33.193Z,38.15
2019-04-06T17:29:19.756Z,37.40
2019-04-06T17:31:50.675Z,36.58
2019-04-06T17:34:37.205Z,37.48
2019-04-06T17:37:17.000Z,36.88
2019-04-06T17:39:48.672Z,38.67
2019-04-06T17:42:25.200Z,39.13
2019-04-06T17:45:13.932Z,39.15
2019-04-06T17:47:50.205Z,37.60
2019-04-06T17:50:20.794Z,38.45
2019-04-06T17:53:05.732Z,39.58
2019-04-06T17:55:39.099Z,38.42
2019-04-06T17:58:12.913Z,37.95
2019-04-06T18:01:01.671Z,35.03
2019-04-06T18:03:37.685Z,34.80
2019-04-06T18:06:23.171Z,35.23
2019-04-06T18:08:59.472Z,36.55
2019-04-06T18:11:29.826Z,34.53
2019-04-06T18:13:58.619Z,34.40
2019-04-06T18:16:28.955Z,36.45
2019-04-06T18:18:57.737Z,36.38
2019-04-06T18:21:26.481Z,32.60
2019-04-06T18:23:55.308Z,37.93
2019-04-06T18:26:27.118Z,33.18
2019-04-06T18:28:56.205Z,37.70
2019-04-06T18:31:26.607Z,39.50
2019-04-06T18:33:55.768Z,37.48
2019-04-06T18:36:26.600Z,38.80
2019-04-06T18:39:02.975Z,39.58
2019-04-06T18:41:35.817Z,38.53
2019-04-06T18:44:04.531Z,38.08
2019-04-06T18:46:33.265Z,34.38
2019-04-06T18:49:02.171Z,35.95
2019-04-06T18:51:30.934Z,33.33
2019-04-06T18:53:59.693Z,39.67
2019-04-06T18:56:29.194Z,36.35
2019-04-06T18:59:00.504Z,42.95
2019-04-06T19:01:29.314Z,40.35
2019-04-06T19:03:58.062Z,40.28
2019-04-06T19:06:27.256Z,41.33
2019-04-06T19:08:56.067Z,40.12
2019-04-06T19:11:25.752Z,37.33
2019-04-06T19:13:54.780Z,39.80
2019-04-06T19:16:23.619Z,38.75
2019-04-06T19:18:52.335Z,43.05
2019-04-06T19:21:21.104Z,41.53
2019-04-06T19:23:49.869Z,40.15
2019-04-06T19:26:18.810Z,38.33
2019-04-06T19:28:47.602Z,37.10
2019-04-06T19:31:16.915Z,41.35
2019-04-06T19:33:45.750Z,37.98
2019-04-06T19:36:14.733Z,42.23
2019-04-06T19:38:43.839Z,42.98
2019-04-06T19:41:12.647Z,38.60
2019-04-06T19:43:41.407Z,40.40
2019-04-06T19:46:25.171Z,42.20
2019-04-06T19:48:58.557Z,43.95
2019-04-06T19:51:29.101Z,40.55
2019-04-06T19:54:00.431Z,38.70
2019-04-06T19:56:29.132Z,38.28
2019-04-06T19:58:57.906Z,35.60
2019-04-06T20:01:26.599Z,40.25
2019-04-06T20:03:55.467Z,41.65
2019-04-06T20:06:24.199Z,41.13
2019-04-06T20:08:52.956Z,44.42
2019-04-06T20:11:22.033Z,40.60
2019-04-06T20:13:50.855Z,42.58
2019-04-06T20:16:20.137Z,41.48
2019-04-06T20:18:49.004Z,41.60
2019-04-06T20:21:17.665Z,40.03
2019-04-06T20:23:46.465Z,43.13
2019-04-06T20:26:15.229Z,43.63
2019-04-06T20:28:44.469Z,44.23
2019-04-06T20:31:13.360Z,38.55
2019-04-06T20:33:50.304Z,43.60
2019-04-06T20:36:13.068Z,42.53
2019-04-06T20:38:42.356Z,44.13
2019-04-06T20:41:11.160Z,44.15
2019-04-06T20:43:39.926Z,44.50
2019-04-06T20:46:08.704Z,44.60
2019-04-06T20:48:38.435Z,42.38
2019-04-06T20:51:07.366Z,47.40
2019-04-06T20:53:36.426Z,43.68
2019-04-06T20:56:05.416Z,47.60
2019-04-06T20:58:34.082Z,49.27
2019-04-06T21:01:02.856Z,44.90
2019-04-06T21:03:31.611Z,44.93
2019-04-06T21:06:00.429Z,46.08
2019-04-06T21:08:29.665Z,44.23
2019-04-06T21:10:58.917Z,49.50
2019-04-06T21:13:27.860Z,46.00
2019-04-06T21:15:56.674Z,48.83
2019-04-06T21:18:25.948Z,49.40
2019-04-06T21:20:57.530Z,46.50
2019-04-06T21:23:26.340Z,48.68
2019-04-06T21:25:55.660Z,49.18
2019-04-06T21:28:24.540Z,52.70
2019-04-06T21:30:53.428Z,52.65
2019-04-06T21:33:22.253Z,49.27
2019-04-06T21:35:51.023Z,51.18
2019-04-06T21:38:19.826Z,53.50
2019-04-06T21:40:48.996Z,49.98
2019-04-06T21:43:18.092Z,52.25
2019-04-06T21:45:46.874Z,51.63
2019-04-06T21:48:16.116Z,51.05
2019-04-06T21:50:45.229Z,50.23
2019-04-06T21:53:14.127Z,50.30
2019-04-06T21:55:43.488Z,51.10
2019-04-06T21:58:14.565Z,47.45
2019-04-06T22:00:45.651Z,54.25
2019-04-06T22:03:14.461Z,53.60
2019-04-06T22:05:43.201Z,48.68
2019-04-06T22:08:19.437Z,50.10
2019-04-06T22:10:48.108Z,54.00
2019-04-06T22:13:16.800Z,55.05
2019-04-06T22:15:46.142Z,51.58
2019-04-06T22:18:14.965Z,52.00
2019-04-06T22:20:43.878Z,51.20
2019-04-06T22:23:13.099Z,49.67
2019-04-06T22:25:41.965Z,40.52
2019-04-06T22:28:10.939Z,55.58
2019-04-06T22:30:40.707Z,48.50
2019-04-06T22:33:09.454Z,48.80
2019-04-06T22:35:38.400Z,50.88
2019-04-06T22:38:08.084Z,50.45
2019-04-06T22:40:37.066Z,48.38
2019-04-06T22:43:05.873Z,43.00
2019-04-06T22:45:35.136Z,48.85
2019-04-06T22:48:07.304Z,46.63
2019-04-06T22:50:36.538Z,51.05
2019-04-06T22:53:08.729Z,56.25
2019-04-06T22:55:38.042Z,52.55
2019-04-06T22:58:07.145Z,51.15
2019-04-06T23:03:41.124Z,50.67
2019-04-06T23:06:18.064Z,51.13
2019-04-06T23:08:47.360Z,49.77
2019-04-06T23:11:16.234Z,49.80
2019-04-06T23:14:22.476Z,53.00
2019-04-06T23:16:50.577Z,50.48
2019-04-06T23:19:19.339Z,52.20
2019-04-06T23:21:48.025Z,56.13
2019-04-06T23:24:16.695Z,52.05
2019-04-06T23:26:45.536Z,47.78
2019-04-06T23:29:14.427Z,53.40
2019-04-06T23:31:43.119Z,49.18
2019-04-06T23:34:11.801Z,52.93
2019-04-06T23:36:40.672Z,55.48
2019-04-06T23:39:09.439Z,52.35
2019-04-06T23:41:38.093Z,53.60
2019-04-06T23:44:07.928Z,53.00
2019-04-06T23:46:36.786Z,52.25
2019-04-06T23:49:05.557Z,49.48
2019-04-06T23:51:34.893Z,47.78
2019-04-06T23:54:04.253Z,50.17
2019-04-06T23:56:33.467Z,54.90
2019-04-06T23:59:03.702Z,51.83
